Zatopek Urban Tour

La Manneken Pis Corrida à Bruxelles (4.00 km)

mercredi 26 décembre 2018

Le Classement original se trouve sur : http://www.chronorace.be        
 
MANNEKEN-PIS CORRIDA - BRUXELLES
DISTANCE : 4.01 km
mercredi 26 décembre 2018
 
Place Dos NOM Equipe Catégorie Pl/cat temps temps/km Vitesse
1 4856 STROLLO SERGIO   SH 1 0:13:05 03:16 18.37
2 4687 SELS ELIAS RCB SH 2 0:13:58 03:29 17.21
3 4189 ANDRÉ JEAN-ERIC RUN ATTITUDE SH 3 0:14:22 03:35 16.73
4 4606 NOUAMANI MOHAMMED JOGGANS/RIB V1 1 0:14:46 03:41 16.28
5 4555 MAHMUD OSMAN WHITE STAR SH 4 0:14:48 03:42 16.24
6 4257 BRUSTEN CHARLES BRUSTEAM SH 5 0:14:51 03:42 16.18
7 4643 POORTMAN YVAN RESC V1 2 0:14:53 03:43 16.15
8 4233 BOLAND PATRICK RUN IN BRUSSELS V1 3 0:14:56 03:44 16.09
9 4585 MONSIEUR MICHAEL BORN TO RUN V1 4 0:15:07 03:46 15.90
10 4703 VALENTIN GREGOIRE   JH 1 0:15:23 03:50 15.62
11 4622 PENNE MARIO VITA V1 5 0:15:34 03:53 15.44
12 4732 TORRES LAGOS MAURICIO   V1 6 0:15:35 03:53 15.42
13 4255 BRUIER DESMETH RANDY   V1 7 0:16:09 04:02 14.88
14 4794 VIAL BERTRAND CSF/MYSTERE SH 6 0:16:12 04:03 14.84
15 4456 IANISKI DOS SANTOS WILLIAN LULA FREE SH 7 0:16:23 04:05 14.67
16 4673 SALAZAR NOEL RIBC V1 8 0:16:27 04:06 14.61
17 4311 DE BUYL QUENTIN   SH 8 0:16:28 04:07 14.60
18 4237 BOMBLED NICOLAS RUN IN BRUSSELS SH 9 0:16:31 04:07 14.55
19 4290 COLLIGNON THOMAS   SH 10 0:16:33 04:08 14.52
20 4742 VAN ARENBERGH LOIC   SH 11 0:16:59 04:14 14.15
21 4672 RUELLE JEAN URBANTRITEAM V1 9 0:17:02 04:15 14.11
22 4348 DEWOLF ALAIN RUN IN BRUSSELS V1 10 0:17:08 04:17 14.03
23 4487 LALLEMAND ALOIS   JH 2 0:17:08 04:17 14.03
24 4258 BUIS ELEA   JF 1 0:17:08 04:17 14.03
25 4271 CAWET DAPHNÉ CSF SD 1 0:17:09 04:17 14.01
26 4390 FRANCOIS CHRISTOPHE J.C.MONTAGNARD V1 11 0:17:16 04:19 13.92
27 4369 DUPUIS ALPHONSE   JH 3 0:17:25 04:21 13.80
28 4391 FRANÇOIS HUGO CABW JH 4 0:17:26 04:21 13.79
29 4642 POORTMAN ROMAIN RESC JH 5 0:17:40 04:25 13.60
30 4465 JANSSENS LOUIS RCBT JH 6 0:17:58 04:29 13.38
31 4227 BINET SYLVAIN OZOIR TRIATHLON V3 1 0:17:58 04:29 13.38
32 4405 GHEZZAR GRAYSON   JH 7 0:18:09 04:32 13.24
33 4519 LEJEUNE MAXIME RCB JH 8 0:18:12 04:33 13.21
34 4223 BESSEMS ARTHUR LES TROTTINEURS SH 12 0:18:12 04:33 13.21
35 4406 GHEZZAR NEIL   V1 12 0:18:14 04:33 13.18
36 4330 DELAUNOY VINCENT TEAM MAHIA V2 1 0:18:16 04:34 13.16
37 4618 PAUWELS CHRISTOPHE   SH 13 0:18:22 04:35 13.09
38 4275 CHARLOT FLORIAN CSF JH 9 0:18:29 04:37 13.00
39 4392 FRANCOIS MARC TRAINING 7 - RU V3 2 0:18:30 04:37 12.99
40 4111 SCHUDDINGS PHILIPPE JCPMF BRUXELLES V1 13 0:18:41 04:40 12.86
41 4542 LOPEZ BRUNO   JH 10 0:19:03 04:45 12.62
42 4247 BOUVRY-BESSIERE ERWAN CLOCHES-PIED JH 11 0:19:17 04:49 12.46
43 8048 JAROUD SAID   V1 14 0:19:18 04:49 12.45
44 4743 VAN CAELENBERG BRUNO TEAM MAHIA V1 15 0:19:27 04:51 12.36
45 4220 BELOT LUC A-TEAM V1 16 0:19:27 04:51 12.36
46 4437 HANON BAPTISTE JETT JH 12 0:19:45 04:56 12.17
47 4381 FALLIER STÉPHANE TEAM MAHIA V1 17 0:20:01 05:00 12.01
48 9513 TERROY RODOLPHE ON VA COURIR ? V1 18 0:20:05 05:01 11.97
49 4720 TERROY CENDRINE PINK TEAM SD 2 0:20:06 05:01 11.96
50 4262 BUYL BORIS   SH 14 0:20:11 05:02 11.91
51 4259 BUIS NOA FCHA JF 2 0:20:18 05:04 11.84
52 4347 DE WALQUE GRÉGOIRE CHALLENGE RUN I V1 19 0:20:24 05:06 11.78
53 4513 LEFEVER MATHEO   JH 13 0:20:53 05:13 11.51
54 4510 LEFEVER BENOIT   SH 15 0:20:54 05:13 11.50
55 4458 JACOB ELINE CS DYLE JF 3 0:20:56 05:14 11.48
56 4540 LOIZEAUX ELODIE PINK TEAM SD 3 0:20:56 05:14 11.48
57 4341 DE RADIGUES LAETITIA ZATOPEK A1 1 0:20:59 05:14 11.45
58 4452 HSIA HUGO COACHING ZONE T JH 14 0:21:01 05:15 11.44
59 4274 CHARLOT CHRISTOPHE CSF V1 20 0:21:02 05:15 11.43
60 4791 VERSTAPPEN TIMO   JH 15 0:21:06 05:16 11.39
61 4033 KUDAY MELIH   JH 16 0:21:07 05:16 11.38
62 4745 VANDAMME ALEXANDRE   JH 17 0:21:08 05:17 11.37
63 4747 VANDAMME SÉBASTIEN   V1 21 0:21:08 05:17 11.37
64 4035 COLLOREC MATTÉO   JH 18 0:21:20 05:20 11.27
65 4480 LAENENS FRANCIS AXA TEAM V3 3 0:21:21 05:20 11.26
66 4852 BENIS MELISSA   SD 4 0:21:33 05:23 11.15
67 4851 SCHEIFF VINCENT   SH 16 0:21:33 05:23 11.15
68 4470 KACZYNSKI KRZYSZTOF AC KORTENBERG V2 2 0:21:38 05:24 11.11
69 4413 GLORIEUX FRÉDÉRIC RUN IN BRUSSELS V1 22 0:21:46 05:26 11.04
70 4104 DERUME MRIC JCPMF BRUXELLES SH 17 0:21:48 05:27 11.02
71 4615 PAPA BENJAMIN ASPH TRIATHLON JH 19 0:21:52 05:28 10.99
72 4245 BOURDON ALAIN   V2 3 0:21:55 05:28 10.97
73 4354 DIRICKX CHARLIE   JH 20 0:21:55 05:28 10.97
74 9256 BRUWIER CLARA   JF 4 0:22:06 05:31 10.88
75 4641 POORTMAN MATHÉO RESC JH 21 0:22:07 05:31 10.87
76 4163 VILAIN NICOLAS RESC - RUN FOR JH 22 0:22:09 05:32 10.85
77 4036 DOMONT PAUL   V3 4 0:22:23 05:35 10.74
78 4103 COEURDEROI QUENTIN JCPMF BRUXELLES SH 18 0:22:30 05:37 10.68
79 4387 FOUDIL YASSINE   SH 19 0:22:55 05:43 10.49
80 4630 PIETERS CLÉMENT JCPMF EVERE SH 20 0:22:57 05:44 10.47
81 4373 EL AYOUBI HAMZA   SH 21 0:22:58 05:44 10.46
82 4162 BAES ANTOINE RESC - RUN FOR JH 23 0:23:02 05:45 10.43
83 4796 VUYE CHARLOTTE RCB SD 5 0:23:22 05:50 10.29
84 4056 EVRARD THIBAUD   JH 24 0:23:24 05:51 10.27
85 4305 DA SILVA CARVALHO ANGÉLICA FINISHIEUR FINI A1 2 0:23:26 05:51 10.26
86 4314 DECOCQ MARIE-PIERRE RIWA A2 1 0:23:29 05:52 10.23
87 4472 KALINSKI MARTINE   A2 2 0:23:29 05:52 10.23
88 4858 EMMANUEL HERTENS TEAM BELGIUM V1 23 0:23:32 05:52 10.21
89 8755 BRUWIER LUCIE   JF 5 0:23:32 05:52 10.21
90 4765 VANKERCKHOVE SOPHIE   SD 6 0:23:43 05:55 10.13
91 4192 ANTOINETTE LEBEAU   A2 3 0:23:58 05:59 10.03
92 4034 KUDAY SIBEL   JF 6 0:23:59 05:59 10.02
93 4544 LOUVEAUX PAULINE CS DYLE JF 7 0:24:03 06:00 9.99
94 4224 BESSIÈRE ARTHUR   JH 25 0:24:06 06:01 9.97
95 4761 VAN HELLEPUTTE DAPHNÉ POUR PÉPÉ! SD 7 0:24:08 06:01 9.96
96 4491 LAMBERT THEO   JH 26 0:24:13 06:03 9.92
97 4595 MOTTE MATHIEU   JH 27 0:24:13 06:03 9.92
98 4057 TERRA WEIKEL ANKENISTS A1 3 0:24:13 06:03 9.92
99 4821 XXX   xxx   0:24:17 06:04 9.90
100 4739 TZIMAS NATALIA RCBT JF 8 0:24:17 06:04 9.90
101 4740 TZIMAS PAUL   V1 24 0:24:18 06:04 9.89
102 8845 FOUCART MICHELE   SD 8 0:24:19 06:04 9.88
103 4069 DRYGALSKI MICHEL ZATAC CHARELROI V4 1 0:24:22 06:05 9.86
104 4587 MORIAU LÜKA   JH 28 0:24:24 06:05 9.85
105 4527 LEMAIRE PHILIPPE   V1 25 0:24:28 06:06 9.82
106 4625 PHILIPPON JEAN-PAUL ANIMAUX EN PÉRI V3 5 0:24:30 06:07 9.81
107 4124 LOVENIERS MÉLUSINE F101G RUN JF 9 0:24:33 06:08 9.79
108 4339 DE MOOR RUDI   V3 6 0:24:40 06:09 9.74
109 9471 BRUWIER EMMA   JF 10 0:24:43 06:10 9.72
110 4638 POLIART JURGEN   JH 29 0:24:50 06:12 9.68
111 4780 VASCONCELLOS CLAUDIA RCB A2 4 0:25:05 06:16 9.58
112 4019 JOOS ANTOINE ATH ATHLÉTISME JH 30 0:25:09 06:17 9.56
113 4206 BALASKAS LUCAS   JH 31 0:25:11 06:17 9.54
114 4708 STRUYF STÉPHANIE JCPMF EVERE SD 9 0:25:29 06:22 9.43
115 4349 DHAEYER RAPHAELLE   JF 11 0:25:31 06:22 9.42
116 9231 MERTENS SEBASTIEN   V1 26 0:25:32 06:22 9.41
117 4766 VAN LIER STEFAN   V3 7 0:25:36 06:23 9.39
118 8906 GILOTEAU JULIEN   SH 22 0:25:39 06:24 9.37
119 4543 LOPEZ JOSE   V1 27 0:25:44 06:25 9.34
120 4692 SHASTINA IRINA   SD 10 0:25:44 06:25 9.34
121 4767 VAN NIEUWENBORGH BRUNO   SH 23 0:25:46 06:26 9.33
122 8608 DEBRUYNE CHRISTOPHE RUNNIN'GREZ V1 28 0:25:47 06:26 9.32
123 8368 BAUFAYS OLIVIER   SH 24 0:25:53 06:28 9.29
124 4197 ASSENMAKER CLARA   A1 4 0:25:58 06:29 9.26
125 4667 ROMERO SIMON JAVIER   SH 25 0:25:58 06:29 9.26
126 9502 STROOBANTS PATRICK   V1 29 0:25:59 06:29 9.25
127 9613 VAN LOOCK LAPIN   V1 30 0:26:06 06:31 9.21
128 4613 OULDCHIKER FANNY ROYAL RACING CL SD 11 0:26:07 06:31 9.20
129 4102 COEURDEROI PASCALE JCPMF BRUXELLES A2 5 0:26:10 06:32 9.19
130 4506 LECLERCQ JOËL   V2 4 0:26:15 06:33 9.16
131 4488 LALLEMAND YOURI   V1 31 0:26:16 06:33 9.15
132 4426 GUERARD SYLVIANE   A1 5 0:26:16 06:33 9.15
133 4009 LANNOY CYRIL   JH 32 0:26:20 06:34 9.13
134 4059 GUNDES ANI   SD 12 0:26:22 06:35 9.12
135 4196 ASLYAH ZAKARIA RESC JH 33 0:26:22 06:35 9.12
136 4539 LÖWENTHAL MARTIN CS DYLE JH 34 0:26:23 06:35 9.11
137 4008 LANNOY SÉBASTIEN   V1 32 0:26:24 06:35 9.10
138 4744 VAN CLEEMPUT OCÉANE   SD 13 0:26:24 06:35 9.10
139 4553 MACHIELS VINCENT   JH 35 0:26:24 06:35 9.10
140 4364 DUCHATEL AYMERIC   JH 36 0:26:25 06:36 9.10
141 4007 VELLEMANS PASCALINE   A1 6 0:26:28 06:36 9.08
142 9292 PAINDAVEINE NATHANAËL   SH 26 0:26:31 06:37 9.06
143 4123 LOVENIERS BÉRÉNICE F101G RUN JF 12 0:26:32 06:37 9.06
144 4713 TAMINIAUX CEDRIC   JH 37 0:26:34 06:38 9.05
145 4203 BAETENS LOUISA   SD 14 0:26:37 06:39 9.03
146 4784 VERHELPEN KENNETH   SH 27 0:26:37 06:39 9.03
147 4060 KEYMACKER MATHIS   JH 38 0:26:39 06:39 9.02
148 4523 LEMAIRE CÉDRIC   JH 39 0:26:40 06:39 9.01
149 4762 VAN HOLLE ROBIN   JH 40 0:26:41 06:40 9.01
150 4514 LE GALL BENJAMIN   JH 41 0:26:43 06:40 9.00
151 4263 CAPRARI SAMANTHA   A1 7 0:26:43 06:40 9.00
152 4147 LIEFFRIG JOHAN LES COPAINS D'A SH 28 0:26:45 06:41 8.98
153 4376 ELOI LARA DAC JF 13 0:26:47 06:41 8.97
154 4289 COLLET CLOTHILDE   SD 15 0:26:59 06:44 8.91
155 4660 RISTIC IVANA   JF 14 0:26:59 06:44 8.91
156 4416 HAELTERMAN LOIC   xxx   0:27:00 06:44 8.90
157 4726 TIHANGE FABIENNE JOGGANS V1 33 0:27:01 06:45 8.90
158 4087 OLIVEIRA DE SOUSA BENJAMIN ZATAC CHARELROI V3 8 0:27:03 06:45 8.89
159 4681 SCARCELLI NATHAN   SH 29 0:27:03 06:45 8.89
160 4409 GIAMPAOLO DENTINI   V1 34 0:27:03 06:45 8.89
161 4640 POORTMAN LUCAS RESC JH 42 0:27:04 06:45 8.88
162 4841 PULETTO ALESSIO RESC JH 43 0:27:04 06:45 8.88
163 8240 BAES FLORENT RESC - RUN FOR JH 44 0:27:06 06:46 8.87
164 4520 LEJEUNE OLIVIA RCB JF 15 0:27:08 06:46 8.86
165 4518 LEJEUNE LAURENT RCB V1 35 0:27:09 06:47 8.85
166 4331 DELERIS NOAH   JH 45 0:27:09 06:47 8.85
167 4659 RINCHARD VALERIE JCPMF FLV A1 8 0:27:15 06:48 8.82
168 4340 DENONCIN ALINE   SD 16 0:27:17 06:49 8.81
169 4198 AUQUIER NICOLAS   SH 30 0:27:21 06:50 8.79
170 4412 GILOT NATHALIE   A2 6 0:27:26 06:51 8.76
171 8171 MURILLO BARRIOS GABRIEL JCPMF BRUXELLES SH 31 0:27:31 06:52 8.73
172 4795 VLAMINCK NATACHA RIB A1 9 0:27:32 06:52 8.73
173 4133 DE BACKER DAVE JCPMF LESSINES V1 36 0:27:35 06:53 8.71
174 4112 SLADDEN PHILIPPE JCPMF BRUXELLES V3 9 0:27:41 06:55 8.68
175 4522 LEMAIRE BLANDINE   SD 17 0:27:54 06:58 8.61
176 4528 LEMAIRE VÉRONIQUE   A2 7 0:27:54 06:58 8.61
177 4526 LEMAIRE MARTIN   JH 46 0:27:54 06:58 8.61
178 4524 LEMAIRE CLAIRE   SD 18 0:27:55 06:58 8.61
179 4228 BLANCO MORALES YOLIMA   SD 19 0:28:00 06:59 8.58
180 4244 BOSMAN SARAH   JF 16 0:28:00 06:59 8.58
181 4706 STOUTEN JULIEN   SH 32 0:28:01 07:00 8.58
182 4633 PINOY SEVERINE   A1 10 0:28:02 07:00 8.57
183 8309 ALBERT CHANTAL JCPMF EVERE A1 11 0:28:02 07:00 8.57
184 4110 SANCHEZ CARMEN JCPMF BRUXELLES A2 8 0:28:06 07:01 8.55
185 4797 WEBER CHARLOTTE   JF 17 0:28:15 07:03 8.51
186 4268 CASILLAS JULIO   V1 37 0:28:17 07:04 8.50
187 4474 KASIER SANDRA   A1 12 0:28:17 07:04 8.50
188 4631 PIETERS CORALIE   JF 18 0:28:18 07:04 8.49
189 4632 PIETERS NICOLAS   JH 47 0:28:26 07:06 8.45
190 4525 LEMAIRE LAURA   JF 19 0:28:28 07:06 8.44
191 4097 SERVAIS VINCIENNE ZATAC CHARELROI A2 9 0:28:30 07:07 8.43
192 4432 HAEGEMAN CATHY TEAM MAHIA SD 20 0:28:30 07:07 8.43
193 4071 FORT DANY ZATAC CHARELROI V2 5 0:28:31 07:07 8.43
194 4428 GUISSET MARIE-LAURE   A1 13 0:28:37 07:09 8.40
195 4546 LUNARDI MAÏLYS JCPMF GENAPPE SD 21 0:28:39 07:09 8.39
196 4730 TORREKENS FLORIAN JCPMF QUAREGNON JH 48 0:28:41 07:10 8.38
197 4834 DOS SANTOS ALEXANDRE PENICHE@CORRER V1 38 0:28:54 07:13 8.32
198 4835 RICA JULIA PENICHE@CORRER SD 22 0:28:54 07:13 8.32
199 8237 SEGHERS ISABELLE JTP BLANCS GILE A2 10 0:28:59 07:14 8.29
200 4030 BANETON FABIENNE   A2 11 0:29:00 07:14 8.29
201 4716 TANIA BLONDIAU   SD 23 0:29:00 07:14 8.29
202 4823 WROBEL SÉVERINE   SD 24 0:29:01 07:15 8.28
203 4822 HERMESSE PIERRE   V1 39 0:29:02 07:15 8.28
204 8238 SMITH JESSICA JTP BLANCS GILE SD 25 0:29:04 07:15 8.27
205 8643 DE JONCKER SONIA JTP BLANCS GILE A1 14 0:29:04 07:15 8.27
206 4365 DUCHATEL BENOÎT   V1 40 0:29:06 07:16 8.26
207 4397 GAUDISSART BRUNO   V2 6 0:29:06 07:16 8.26
208 4751 VANDEN BORRE ELLIOTT   JH 49 0:29:07 07:16 8.25
209 4850 VERDICKT JARI   JH 50 0:29:09 07:17 8.24
210 4135 LEFEBVRE LAURENT JCPMF LESSINES SH 33 0:29:09 07:17 8.24
211 4442 HENRIQUES FERREIRA NELSON JESUS PAPA ASFALTO SH 34 0:29:09 07:17 8.24
212 8129 DAVER FREDERIC   V2 7 0:29:11 07:17 8.24
213 4053 DUSSART VIRGINIE   SD 26 0:29:12 07:17 8.23
214 4461 JACQUEMIN PHILIPPE   V1 41 0:29:12 07:17 8.23
215 4603 NIJS VIRGINIE   SD 27 0:29:12 07:17 8.23
216 4272 CHARLES OLIVIA   SD 28 0:29:13 07:18 8.23
217 4319 DEGEEST CINDY FUNCLUB JOGGING A1 15 0:29:13 07:18 8.23
218 4789 VERSCHUEREN MARIE   SD 29 0:29:13 07:18 8.23
219 4727 TIHON LAURENT CHALLENGISTE (E V1 42 0:29:16 07:18 8.21
220 4564 MARINELLI JOSEPH   SH 35 0:29:20 07:19 8.19
221 4563 MARINELLI AMY HEARTBREAK HILL SD 30 0:29:21 07:20 8.19
222 4269 CASILLAS SARA   JF 20 0:29:22 07:20 8.18
223 4736 TRUYENS SYLVIE   SD 31 0:29:22 07:20 8.18
224 4812 WILMET MATTHIEU   SH 36 0:29:25 07:21 8.17
225 4698 SPARACIO BRUNO   V1 43 0:29:32 07:22 8.14
226 4239 BONFOND ANAËLLE   JF 21 0:29:32 07:22 8.14
227 4529 LEONARD PATRICK PIZZA LOVER RUN V2 8 0:29:32 07:22 8.14
228 4600 NAVEAUX PHILIPPE   V2 9 0:29:33 07:23 8.13
229 4776 VAN STAAY PATRICIA B-SPORT A1 16 0:29:34 07:23 8.13
230 4423 GREVY SOPHIE   A1 17 0:29:35 07:23 8.12
231 4294 COPPOLA DIEGO ACKO JH 51 0:29:36 07:23 8.12
232 4798 WEBER EMMA   JF 22 0:29:36 07:23 8.12
233 4657 REIP OLIVIER   SH 37 0:29:38 07:24 8.11
234 4494 LAMOUREUX AYMERIC   JH 52 0:29:39 07:24 8.11
235 4616 PATTYN QUENTIN   SH 38 0:29:39 07:24 8.11
236 4312 DECAMP CELINE   SD 32 0:29:39 07:24 8.11
237 8130 STEER NATHALIE   A1 18 0:29:42 07:25 8.09
238 4101 VERVAEKE WILLY ZATAC CHARELROI V2 10 0:29:42 07:25 8.09
239 4792 VERVECKEN JESSEE   V1 44 0:29:43 07:25 8.09
240 4793 VERVECKEN SURI-LOU   JF 23 0:29:44 07:25 8.08
241 4449 HOCK VERONIQUE   A1 19 0:29:44 07:25 8.08
242 4333 DELOGNE KATTY   A1 20 0:29:45 07:26 8.08
243 4334 DELOGNE MARGOT   A2 12 0:29:45 07:26 8.08
244 4810 WILMET ISABELLE   SD 33 0:29:46 07:26 8.07
245 4421 GOODEN TONIA RUN IN BRUSSELS SD 34 0:29:49 07:27 8.06
246 4512 LEFEVER FANNY   SD 35 0:29:49 07:27 8.06
247 4714 TAMINIAUX QUENTIN   SH 39 0:29:49 07:27 8.06
248 4471 KALINSKI ANNICK   A1 21 0:29:49 07:27 8.06
249 4533 LESCEUX DELPHINE   A1 22 0:29:53 07:28 8.04
250 4332 DELMEE EVELYNE   SD 36 0:29:54 07:28 8.04
251 4754 VANDERLINDEN MARIE   SD 37 0:29:54 07:28 8.04
252 4139 DERUMIER ACHILLE LES COPAINS D'A JH 53 0:29:57 07:29 8.02
253 4768 VANROBAYS BÉATRICE   JF 24 0:29:58 07:29 8.02
254 4772 VANROBAYS MICHEL   V1 45 0:29:59 07:29 8.02
255 9224 MERCKX VALENTIN   SH 40 0:29:59 07:29 8.02
256 4012 MALEVEZ NADÈGE   SD 38 0:30:00 07:29 8.01
257 4664 ROCHET JEAN-LUC JCPMF (MONT-SAI V2 11 0:30:00 07:29 8.01
258 4232 BOEL PAULINE   SD 39 0:30:01 07:30 8.01
259 4105 EBING KATRIN JCPMF BRUXELLES A2 13 0:30:02 07:30 8.00
260 4572 MASSON MARIE JCPMF WOLUWE SD 40 0:30:02 07:30 8.00
261 4108 KEIRENS CHANTAL JCPMF BRUXELLES A1 23 0:30:04 07:30 7.99
262 9450 SCHOENAERS GEOFFREY   V1 46 0:30:05 07:31 7.99
263 4844 PIERSOEL JULIE LA FORESTOISE JF 25 0:30:06 07:31 7.98
264 4842 HAROU CAMILLE   JF 26 0:30:06 07:31 7.98
265 4771 VANROBAYS MAXIME   JH 54 0:30:06 07:31 7.98
266 4366 DUCHATEL CÉLIA   JF 27 0:30:11 07:32 7.96
267 4090 PARÉE TÉRENCE ZATAC CHARELROI V1 47 0:30:12 07:32 7.96
268 9279 NUYTS VALERIE JA UNE FOIS SD 41 0:30:13 07:33 7.95
269 4040 CHAWAF JOACHIM   JH 55 0:30:14 07:33 7.95
270 4848 CHAWAF CHRISTOPHE   SH 41 0:30:14 07:33 7.95
271 8041 PIETTE ISABELLE   SD 42 0:30:15 07:33 7.95
272 4843 BERGHS CÉCILE   A1 24 0:30:16 07:33 7.94
273 4052 BERT PASCAL   V2 12 0:30:16 07:33 7.94
274 9356 PONCELET LAURENT   V1 48 0:30:17 07:34 7.94
275 4185 ACCARAIN PASCAL CEPAL V2 13 0:30:17 07:34 7.94
276 4243 BOON CHARLOTTE   JF 28 0:30:18 07:34 7.93
277 4184 ABDEL KHALEK SAFEYA   A1 25 0:30:19 07:34 7.93
278 4068 DRION THÉRÈSE ZATAC CHARELROI A2 14 0:30:21 07:35 7.92
279 4061 BAEKELAND MURIEL ZATAC CHARELROI A2 15 0:30:21 07:35 7.92
280 4066 CLOQUET PASCAL ZATAC CHARELROI V2 14 0:30:22 07:35 7.91
281 4073 GILLAIN CORINNE ZATAC CHARELROI A2 16 0:30:22 07:35 7.91
282 9378 RABINOWICZ NATHAN   JH 56 0:30:23 07:35 7.91
283 9313 PEETERS OLIVIER JOGGANS V1 49 0:30:27 07:36 7.89
284 4436 HAMBURSIN ANAÏS   SD 43 0:30:29 07:37 7.88
285 4479 KORONAKIS ALEXANDROS FLYING GEESE RU SH 42 0:30:30 07:37 7.88
286 4614 PANAGOPOULOU EIRINI FLYING GEESE RU A1 26 0:30:31 07:37 7.88
287 4353 DIMAS JEAN FLYING GEESE RU V1 50 0:30:31 07:37 7.88
288 4598 NANGE MERY TANIS V1 51 0:30:31 07:37 7.88
289 4597 NANGE DÉLIA ACKO JF 29 0:30:31 07:37 7.88
290 4050 DE ROOCK KATHLEEN DAC A2 17 0:30:32 07:37 7.87
291 4106 GUIOT NATHALIE JCPMF BRUXELLES A2 18 0:30:32 07:37 7.87
292 4165 MULS CLARA NOLF AND FRIEND JF 30 0:30:32 07:37 7.87
293 9379 RABINOWICZ STEPHAN   V1 52 0:30:33 07:38 7.87
294 4166 MULS ELODIE NOLF AND FRIEND JF 31 0:30:34 07:38 7.86
295 4623 PEREMANS GAELLE TEAM MAHIA SD 44 0:30:35 07:38 7.86
296 4380 FALLIER CLOVIS TEAM MAHIA JH 57 0:30:35 07:38 7.86
297 8322 ANTOINE CAROLINE   A1 27 0:30:37 07:39 7.85
298 4167 MULS FRÉDÉRIC NOLF AND FRIEND V1 53 0:30:38 07:39 7.85
299 4168 VUMI-GARROY KIM NOLF AND FRIEND A1 28 0:30:38 07:39 7.85
300 4326 DE HASELEER MARLEEN DAC A2 19 0:30:39 07:39 7.84
301 4253 BROHEE LUCIEN RIAAC JH 58 0:30:39 07:39 7.84
302 9470 SINIA NICOLAS   SH 43 0:30:40 07:39 7.84
303 9549 VAN CAUWELAERT MICHEL   V1 54 0:30:40 07:39 7.84
304 4501 LAUWERS ELSA RIWA SD 45 0:30:40 07:39 7.84
305 4360 DOUCET SANDRINA JCPMF EVERE A2 20 0:30:41 07:40 7.83
306 4283 CLUDTS ANNAELLE   JF 32 0:30:42 07:40 7.83
307 4825 HÉRENT LARA   SD 46 0:30:42 07:40 7.83
308 4411 GILON VERONIQUE JCPMF EVERE A2 21 0:30:43 07:40 7.82
309 8088 XXX   xxx   0:30:46 07:41 7.81
310 4362 DUBOIS ADRIAN   JH 59 0:30:47 07:41 7.81
311 4051 LONGE ANN   A2 22 0:30:48 07:41 7.80
312 4363 DUBOIS KEVIN   SH 44 0:30:49 07:42 7.80
313 4081 MINETTE ALEXANDRE ZATAC CHARELROI JH 60 0:30:49 07:42 7.80
314 4083 MINETTE SEBASTIEN ZATAC CHARELROI SH 45 0:30:50 07:42 7.79
315 4574 MCCARTHY ANGELA   A1 29 0:30:50 07:42 7.79
316 4231 BAGE NATHALIE   A2 23 0:30:52 07:42 7.79
317 4729 TORREKENS BENJAMIN JCPMF QUAREGNON V1 55 0:30:53 07:43 7.78
318 4058 LEFEBURE JEAN-MARC ANKENISTS V1 56 0:30:55 07:43 7.77
319 4041 DUPONT CYRIL CSF JH 61 0:30:58 07:44 7.76
320 4002 XXX   xxx   0:30:58 07:44 7.76
321 4003 XXX   xxx   0:30:59 07:44 7.76
322 4532 LEROY ANNE JE COURS POUR M A2 24 0:30:59 07:44 7.76
323 4001 XXX   xxx   0:30:59 07:44 7.76
324 4004 XXX   xxx   0:30:59 07:44 7.76
325 8430 BONTE CHARLES JCL SH 46 0:31:02 07:45 7.74
326 4241 BONTE LILY JCL JF 33 0:31:02 07:45 7.74
327 4240 BONTE JULIA JCL JF 34 0:31:02 07:45 7.74
328 4086 MOUYARD ELODIE ZATAC CHARELROI A1 30 0:31:03 07:45 7.74
329 4067 DE BELDER JOELLE ZATAC CHARELROI A2 25 0:31:03 07:45 7.74
330 4621 PELLICHERO VALÉRY   SH 47 0:31:04 07:45 7.74
331 4065 BURNY ROGER ZATAC CHARELROI V3 10 0:31:04 07:45 7.74
332 4080 MICHEL MARTINE ZATAC CHARELROI A2 26 0:31:04 07:45 7.74
333 4126 OSORIO PINEDA ANGELA F101G RUN SD 47 0:31:04 07:45 7.74
334 4680 SCARCELLI MAYA   JF 35 0:31:04 07:45 7.74
335 4388 FOULON PIERRE   V2 15 0:31:05 07:46 7.73
336 4440 HEERINCKX CORALIE   SD 48 0:31:05 07:46 7.73
337 4100 VANHIESBECQ PIERRE ZATAC CHARELROI V2 16 0:31:05 07:46 7.73
338 4250 BRACKE PHILIPPE   V1 57 0:31:09 07:47 7.72
339 4248 BRACKE ETHAN   JH 62 0:31:09 07:47 7.72
340 4460 JACQMAIN MAGALI   A1 31 0:31:10 07:47 7.71
341 4095 SCIARROTTA CALOGERO ZATAC CHARELROI SH 48 0:31:12 07:47 7.70
342 4446 HEYMANS DOMINIQUE BIN A2 27 0:31:14 07:48 7.70
343 4119 ESPINOSA CHARLOTTE JCPMF BRUXELLES SD 49 0:31:15 07:48 7.69
344 4536 LISE ROGIERS   JF 36 0:31:15 07:48 7.69
345 4599 NAVARRO RODRÍGUEZ ANDREA RUN IN BRUSSELS SD 50 0:31:16 07:48 7.69
346 4193 ARISMENDY INTI RUN IN BRUSSELS JH 63 0:31:16 07:48 7.69
347 4666 ROGIERS BENOIT   V1 58 0:31:16 07:48 7.69
348 4737 T'SAS FRANCE   A1 32 0:31:18 07:49 7.68
349 4481 LAGUIONIE BASTIEN   SH 49 0:31:18 07:49 7.68
350 4686 SEE-CHIM ALLAN   V1 59 0:31:18 07:49 7.68
351 4150 MENSAERT MATHIAS LES COPAINS D'A JH 64 0:31:19 07:49 7.67
352 8822 EVRARD CLARA ATHOIS LE VOLAN JF 37 0:31:20 07:49 7.67
353 4148 MENSAERT HERMAN LES COPAINS D'A V2 17 0:31:20 07:49 7.67
354 4143 GILLARD DOMINIQUE LES COPAINS D'A A2 28 0:31:21 07:50 7.67
355 4723 THINNES MATISSE BORN TO RUN JH 65 0:31:22 07:50 7.66
356 4695 SIRJACOBS ISABELLE   A2 29 0:31:23 07:50 7.66
357 4476 KESTENS IRAM   JH 66 0:31:23 07:50 7.66
358 4684 SCOUBEAU HENRI   V2 18 0:31:23 07:50 7.66
359 4074 GODEAU JOHANNA ZATAC CHARELROI SD 51 0:31:23 07:50 7.66
360 9260 MOURAUX MARC   SH 50 0:31:24 07:50 7.65
361 4098 TOPRAKCI FILIZ ZATAC CHARELROI SD 52 0:31:25 07:51 7.65
362 4077 LESOIL NICOLAS ZATAC CHARELROI SH 51 0:31:26 07:51 7.65
363 9268 NEDOSTOUPOF JEREMY   SH 52 0:31:27 07:51 7.64
364 4649 RADERMECKER CORENTIN REGIS.RADERMECK JH 67 0:31:28 07:51 7.64
365 4650 RADERMECKER MAXENCE REGIS.RADERMECK JH 68 0:31:29 07:52 7.63
366 4651 RADERMECKER RÉGIS REGIS.RADERMECK V1 60 0:31:30 07:52 7.63
367 4665 ROEKAERTS JULIEN   JH 69 0:31:31 07:52 7.63
368 4164 DUPUIS MANON LES ECLAIRS JF 38 0:31:32 07:52 7.62
369 4764 VANINGELGEM TITUS WILDERBOS JH 70 0:31:33 07:53 7.62
370 4763 VANINGELGEM FRANCIS WILDERBOS V1 61 0:31:34 07:53 7.61
371 4769 VANROBAYS EMILIE   JF 39 0:31:34 07:53 7.61
372 4748 VANDECAUTER MATTEO   JH 71 0:31:34 07:53 7.61
373 4368 DUMONT GWEN ATHOIS LE VOLAN SD 53 0:31:35 07:53 7.61
374 4434 HAINAUT CHARLOTTE   SD 54 0:31:36 07:53 7.61
375 4115 BENTATO JAMILA JCPMF BRUXELLES SD 55 0:31:37 07:54 7.60
376 4410 GILLIAS LAURIC   JH 72 0:31:37 07:54 7.60
377 4346 DE VLEESCHAUWER MARTINE   A2 30 0:31:37 07:54 7.60
378 4020 JOOS GRÉGOIRE ATH ATHLÉTISME JH 73 0:31:39 07:54 7.59
379 4811 WILMET MARIE-OMBELINE   SD 56 0:31:39 07:54 7.59
380 4849 CORDIER AMÉLIE   SD 57 0:31:42 07:55 7.58
381 9013 HENSEVAL GEROME   SH 53 0:31:42 07:55 7.58
382 4652 RAES NEAL   SH 54 0:31:44 07:55 7.57
383 8266 NELISSEN ARIANE NOLF AND FRIEND A1 33 0:31:45 07:56 7.57
384 4427 GUISSET MARC   V4 2 0:31:47 07:56 7.56
385 4753 VANDERLINDEN LARA VDL JF 40 0:31:48 07:56 7.56
386 4545 LOXHAY MAUS   SD 58 0:31:48 07:56 7.56
387 4537 LKADERI SAMIRA JCPMF SD 59 0:31:48 07:56 7.56
388 4647 QUANIERS NADINE JCPMF A2 31 0:31:48 07:56 7.56
389 4568 MARQUET FRANÇOISE REGIS.RADERMECK A1 34 0:31:49 07:57 7.55
390 4022 TEHEUX BENJAMIN   SH 55 0:31:56 07:58 7.53
391 4351 D'HULSTER ELODIE   SD 60 0:32:01 08:00 7.51
392 4352 D'HULSTER NOÉMIE   SD 61 0:32:01 08:00 7.51
393 4845 HABRAN CELIA JE COURS POUR M SD 62 0:32:01 08:00 7.51
394 4117 CLÉMENT MARINE JCPMF BRUXELLES SD 63 0:32:05 08:01 7.49
395 8412 BISSCHOT JULIEN   V2 19 0:32:06 08:01 7.49
396 4128 VERBOOGEN VINCENT F101G RUN SH 56 0:32:07 08:01 7.48
397 4016 PULETTO DELIA JOGGANS JF 41 0:32:08 08:01 7.48
398 4018 CARAMAZZA ROSARIA JOGGANS A1 35 0:32:08 08:01 7.48
399 4482 LAGUIONIE BRICE   V2 20 0:32:09 08:02 7.48
400 4833 HEECKHOUTE MARINE   SD 64 0:32:09 08:02 7.48
401 4502 LE BOURGEOIS AURIANE   JF 42 0:32:14 08:03 7.46
402 4503 LE BOURGEOIS GARANCE   JF 43 0:32:15 08:03 7.45
403 4445 HERMANN ELODIE   SD 65 0:32:15 08:03 7.45
404 4327 DEHOUX STÉPHANE   V2 21 0:32:16 08:03 7.45
405 4027 MC NERNEY SELINA   A1 36 0:32:16 08:03 7.45
406 4028 GOULART MC NERNEY CHRISTIAN   SH 57 0:32:16 08:03 7.45
407 9307 PAUWELS CÉDRIC   SH 58 0:32:20 08:04 7.43
408 9668 VERROKEN ALEXIA VERROKEN SD 66 0:32:20 08:04 7.43
409 4045 BOOSTEN AURÉLIE   SD 67 0:32:20 08:04 7.43
410 4062 BAISE PATRICIA ZATAC CHARELROI A3 1 0:32:20 08:04 7.43
411 4088 PACHOLYK SONIA ZATAC CHARELROI A3 2 0:32:22 08:05 7.43
412 4552 MACHIELS RAPHAËL   JH 74 0:32:24 08:05 7.42
413 4121 SCHELSTRAETE CHRISTINE JCPMF BRUXELLES A2 32 0:32:25 08:06 7.41
414 4786 VERHOEVEN GERALDINE JET SD 68 0:32:27 08:06 7.41
415 4425 GRYSON ARTHUR   JH 75 0:32:29 08:07 7.40
416 4424 GRISÉ VÉRONIQUE JCPMF EVERE A1 37 0:32:29 08:07 7.40
417 4608 OLSEN ASHER   JH 76 0:32:29 08:07 7.40
418 4609 OLSEN DANIEL   SH 59 0:32:30 08:07 7.40
419 4610 OLSEN NIKKI   SD 69 0:32:31 08:07 7.39
420 4690 SEMINCKX DELPHINE   SD 70 0:32:33 08:08 7.38
421 9849 QUERTINMONT KELLY JE COURS POUR M SD 71 0:32:39 08:09 7.36
422 9850 CORTEIL MARTIN JE COURS POUR M SH 60 0:32:39 08:09 7.36
423 4261 BUSSETI FANNY   JF 44 0:32:40 08:09 7.36
424 4581 MINGUET VIRGINIE   A1 38 0:32:41 08:10 7.35
425 4712 SZABO MARGUERITE   JF 45 0:32:41 08:10 7.35
426 4831 BEYAERT MAXIME COYS SH 61 0:32:41 08:10 7.35
427 4829 ANDRÉ EMILIE ALLEZ MICHEL CH SD 72 0:32:43 08:10 7.35
428 4725 TIBOLLA LAURA   A2 33 0:32:44 08:10 7.34
429 9890 DE BEER SOPHIE   SD 73 0:32:45 08:11 7.34
430 9000 HOUBART SOPHIE GSK FUNCLUB SD 74 0:32:48 08:11 7.33
431 4200 AURIEL MAEL   JH 77 0:32:48 08:11 7.33
432 4573 MATTHEUS NATHALIE   A1 39 0:32:56 08:13 7.30
433 4242 BONTE LOUIS JCL JH 78 0:32:58 08:14 7.29
434 4254 BRONCHARD BENJAMIN R R B SH 62 0:32:59 08:14 7.29
435 4329 DELAFONTAINE ANDRE R.R.B V2 22 0:32:59 08:14 7.29
436 4576 MEERSSEMAN CAROLINE JCL SD 75 0:33:00 08:14 7.28
437 4815 YSEBAERT KRISTEL   SD 76 0:33:01 08:15 7.28
438 4320 DEGENS RÉBECCA JCPMF QUAREGNON SD 77 0:33:05 08:16 7.26
439 4400 GENNAUX ZOÉ   SD 78 0:33:07 08:16 7.26
440 4300 COSTAMAGNA SIMONA   A1 40 0:33:07 08:16 7.26
441 4778 VAN WICHELEN ALAIN   V2 23 0:33:13 08:18 7.24
442 4172 HEYVAERT NICOLAS LET'S DO THIS V1 62 0:33:13 08:18 7.24
443 4393 FREMAUX FRÉDÉRIQUE   A1 41 0:33:13 08:18 7.24
444 4707 STREEL LÉA   JF 46 0:33:13 08:18 7.24
445 4466 JEROME THOMAS   JH 79 0:33:13 08:18 7.24
446 4463 JAMAIGNE JESS   SD 79 0:33:16 08:18 7.22
447 4548 LUYPAERT MARC PIERRE   V2 24 0:33:18 08:19 7.22
448 4093 REHO DONATO ZATAC CHARELROI V3 11 0:33:22 08:20 7.20
449 4109 LEFÈBVRE GÉRALDINE JCPMF BRUXELLES SD 80 0:33:25 08:21 7.19
450 4042 PIRMOLIN BÉNÉDICTE   A1 42 0:33:26 08:21 7.19
451 4355 DISY CELINE   SD 81 0:33:26 08:21 7.19
452 4118 DASPREMONT STÉPHANIE JCPMF BRUXELLES SD 82 0:33:26 08:21 7.19
453 4854 DEBEKKER CAT   SD 83 0:33:27 08:21 7.19
454 4356 DISY ESTELLE   SD 84 0:33:27 08:21 7.19
455 4282 CLERCQ CORINE   A2 34 0:33:27 08:21 7.19
456 4049 ROCHETTE BERTRAND PAULAK SH 63 0:33:27 08:21 7.19
457 4617 PAULA KACZYNSKA   SD 85 0:33:28 08:21 7.18
458 8378 BEER CAMILLE   JH 80 0:33:28 08:21 7.18
459 4827 BEYAERT LAURENT MAXIME BEYAERT SH 64 0:33:30 08:22 7.17
460 4217 BEER CHRISTOPHE CEPAL xxx   0:33:32 08:22 7.17
461 4654 RASSALLE PATRICIA JCL A2 35 0:33:33 08:23 7.16
462 4404 GHEZALI EMMA   JF 47 0:33:33 08:23 7.16
463 4407 GHILAIN ADELINE   SD 86 0:33:33 08:23 7.16
464 4669 ROSEZ VIRGINIE JCL SD 87 0:33:33 08:23 7.16
465 4450 HOCQUET FRANÇOIS   SH 65 0:33:33 08:23 7.16
466 4500 LAURENTIN VICTOIRE   JF 48 0:33:33 08:23 7.16
467 4218 BEER MARGAUX   JF 49 0:33:34 08:23 7.16
468 4399 GENICOT CLÉMENCE   JF 50 0:33:34 08:23 7.16
469 4114 VINCKE ISABELLE JCPMF BRUXELLES A2 36 0:33:37 08:24 7.15
470 4801 WEYERS BERNARD   V2 25 0:33:38 08:24 7.15
471 4709 STRUYF VINCIANNE JCPMF EVERE SD 88 0:33:38 08:24 7.15
472 4280 CLAUS SOLANGE JCPMF EVERE A2 37 0:33:39 08:24 7.14
473 4044 CORDONNIER CHRISTELLE   A1 43 0:33:39 08:24 7.14
474 4089 PARÉE HERMIONE ZATAC CHARELROI A1 44 0:33:40 08:24 7.14
475 4256 BRUSCHI AURELIA   A1 45 0:33:40 08:24 7.14
476 4814 YO MIZUKAMI   JH 81 0:33:41 08:25 7.14
477 4473 KAN MIZUKAMI   JH 82 0:33:42 08:25 7.13
478 4582 MISAKI MIZUKAMI   SD 89 0:33:42 08:25 7.13
479 4475 KAZUAKI MIZUKAMI   V1 63 0:33:43 08:25 7.13
480 4205 BAIX ELODIE   SD 90 0:33:43 08:25 7.13
481 4072 GILBART VIVIANE ZATAC CHARELROI A2 38 0:33:44 08:25 7.12
482 4309 DE BOLLE NATACHA JE COURS POUR M A1 46 0:33:45 08:26 7.12
483 4658 RENIER VINCENT JE COURS POUR M V2 26 0:33:45 08:26 7.12
484 9321 PEREK MARTYNA   SD 91 0:33:45 08:26 7.12
485 4586 MOORTGAT STÉPHANE   V1 64 0:33:45 08:26 7.12
486 4676 SANTKIN AURORE   A1 47 0:33:46 08:26 7.12
487 4299 COSEYNS THIERRY RUNNIN'GREZ V1 65 0:33:47 08:26 7.11
488 4383 FERREIRA INÊS PAPA ASFALTO SD 92 0:33:47 08:26 7.11
489 4859 GIULIANI PIERRE   SH 66 0:33:47 08:26 7.11
490 9102 LECOMTE THIERRY   V2 27 0:33:49 08:27 7.11
491 8328 ARDEMAGNI DANIELA JCPMF A2 39 0:33:51 08:27 7.10
492 4724 THINNES ROMAIN BORN TO RUN JH 83 0:33:53 08:28 7.09
493 4569 MARTINOT SANDRINE BORN TO RUN A1 48 0:33:53 08:28 7.09
494 4722 THINNES EMELYNE BORN TO RUN JF 51 0:33:53 08:28 7.09
495 4325 DE GUCHTENEËRE OLIVIA   JF 52 0:33:53 08:28 7.09
496 4493 LAMOUREUX ADRIEN   JH 84 0:33:54 08:28 7.09
497 4337 DELWARDE IGOR TEAM DELWARDE JH 85 0:33:55 08:28 7.09
498 4226 BEYENS NATHALIE JCPMF EVERE A1 49 0:33:55 08:28 7.09
499 4718 TERRIER FLORENCE   A1 50 0:33:55 08:28 7.09
500 4338 DELWARDE MARIUS TEAM DELWARDE JH 86 0:33:55 08:28 7.09
501 4386 FONTAINE OLIVIER   SH 67 0:33:56 08:28 7.08
502 4517 LEGZOULI MARYEM   SD 93 0:33:56 08:28 7.08
503 4557 MANET MÉLODIE   JF 53 0:33:56 08:28 7.08
504 4029 MEYS PASCAL RUNNING FRIENDS V2 28 0:33:56 08:28 7.08
505 4336 DELWARDE ANTOINE TEAM DELWARDE V1 66 0:33:56 08:28 7.08
506 4496 LAMOUREUX STEPHANE   V1 67 0:33:56 08:28 7.08
507 4783 VERCRUYSSE THOMAS   V1 68 0:33:58 08:29 7.08
508 4602 NICKLAS ISAAC   JH 87 0:33:58 08:29 7.08
509 4813 WIMMER VALÉRIE   A1 51 0:33:59 08:29 7.07
510 4777 VAN STEENBERGHE LAVINIA TRAKKS JF 54 0:34:00 08:29 7.07
511 4838 THOMAS ALEXANDRA TRAKKS A1 52 0:34:01 08:30 7.07
512 4837 THOMAS LINE TRAKKS JF 55 0:34:04 08:30 7.06
513 4070 FONTAINE POL ZATAC CHARELROI V3 12 0:34:09 08:32 7.04
514 4120 FATI JULIO JCPMF BRUXELLES V2 29 0:34:16 08:33 7.01
515 4733 TOUSSAINT ALICE TRAKKS JF 56 0:34:17 08:34 7.01
516 4116 BLANDIAUX CATHERINE JCPMF BRUXELLES A2 40 0:34:17 08:34 7.01
517 4252 BREEDSTRAET FABIENNE TRAKKS A1 53 0:34:20 08:34 7.00
518 4125 RYDLEWSKI CHIARA F101G RUN JF 57 0:34:20 08:34 7.00
519 4054 DAVER OLIVIA   JF 58 0:34:21 08:35 7.00
520 4055 CROCHET GAELLE   SD 94 0:34:22 08:35 6.99
521 4583 MOERS VIRGINIE RIAAC SD 95 0:34:22 08:35 6.99
522 4328 DE JONGE DAPHNÉ   SD 96 0:34:23 08:35 6.99
523 8209 RYDLEWSKI STEPHANE F101G RUN V1 69 0:34:24 08:35 6.99
524 4286 COL ISABELLE JCPMF QUAREGNON A1 54 0:34:29 08:37 6.97
525 4704 STIEVENART LOU JCPMF QUAREGNON SD 97 0:34:29 08:37 6.97
526 8294 MAYNE THOMAS LET'S DO THIS V1 70 0:34:30 08:37 6.97
527 4682 SCHREIBER ANNABELLE WPRC SD 98 0:34:30 08:37 6.97
528 4418 GOFFIN ISABELLE GAG A1 55 0:34:30 08:37 6.97
529 4384 FILLEE NATHALIE GAG A2 41 0:34:31 08:37 6.96
530 4043 SCHOONHEYT ISABELLE VILLERVALLA SD 99 0:34:31 08:37 6.96
531 4367 DUMONT AURELIE   SD 100 0:34:31 08:37 6.96
532 4323 DE GUCHTENEËRE ANDRÉ   V1 71 0:34:31 08:37 6.96
533 4579 MICHIELS DELPHINE   SD 101 0:34:32 08:37 6.96
534 4324 DE GUCHTENEËRE JULIEN   JH 88 0:34:34 08:38 6.95
535 4430 HABINOWSKI ELEANOR   JF 59 0:34:36 08:38 6.95
536 4575 MCNEMAR HEATHER   A1 56 0:34:37 08:39 6.94
537 4431 HABINOWSKI MATT   V1 72 0:34:37 08:39 6.94
538 9602 VANHALLE ETHEL   JH 89 0:34:38 08:39 6.94
539 4291 CONRATH LOÏS   SD 102 0:34:38 08:39 6.94
540 4394 GABRIEL ELISE   JF 60 0:34:41 08:40 6.93
541 4492 LAMBERT TOM   JH 90 0:34:41 08:40 6.93
542 9107 LE FEVERE NATHALIE RUNFORFIT A1 57 0:34:46 08:41 6.91
543 4229 BLONDEL THOMAS   V2 30 0:34:46 08:41 6.91
544 4626 PIEDBOEUF VALÉRIE   A1 58 0:34:48 08:41 6.91
545 4644 POOT SOPHIE   A1 59 0:34:49 08:42 6.90
546 4342 DERU ANNE SOPHIE   A1 60 0:34:50 08:42 6.90
547 4773 VAN ROSSEM ELS   A1 61 0:34:53 08:43 6.89
548 4691 SERVOTTE ELOÏSE   JF 61 0:34:53 08:43 6.89
549 9236 MICHEL ALAN   SH 68 0:34:54 08:43 6.89
550 9207 MAYENCE SOPHIE   SD 103 0:34:55 08:43 6.88
551 4273 CHARLES SALOME   JF 62 0:34:55 08:43 6.88
552 4464 JANSSENES GAELLE   xxx   0:34:56 08:43 6.88
553 4477 KIEBOOMS SERGE ART V2 31 0:34:57 08:44 6.88
554 8202 DE BRUYCKER TINA F101G RUN SD 104 0:34:57 08:44 6.88
555 4127 VERBOOGEN LUDIVINE F101G RUN A1 62 0:34:57 08:44 6.88
556 4317 DE CRAEYE DIRK   V1 73 0:34:58 08:44 6.87
557 4215 BECKERS FABIENNE   A3 3 0:34:58 08:44 6.87
558 8876 GELEYNS VINCENT   A2 42 0:34:59 08:44 6.87
559 4046 SCHOONHEYT MONIQUE VILLERVALLA TEA A2 43 0:35:00 08:44 6.87
560 4292 COPPENS ARTHUR   JH 91 0:35:01 08:45 6.86
561 4752 VAN DER EECKEN OLIVIER   V1 74 0:35:02 08:45 6.86
562 4293 COPPENS FABRICE   V1 75 0:35:02 08:45 6.86
563 4717 TANNOU MARIE-AUDE   SD 105 0:35:04 08:45 6.85
564 4316 DE COSTER SANDRA DOORENLOPERS A1 63 0:35:06 08:46 6.85
565 4551 LYNAM STEPHEN   JH 92 0:35:08 08:46 6.84
566 4550 LYNAM MEL   V1 76 0:35:08 08:46 6.84
567 4047 CLAERBOUT CAROLINE CAROLINE CLAERB SD 106 0:35:09 08:47 6.84
568 4570 MARTROYE DE JOLY LOÏC   JH 93 0:35:09 08:47 6.84
569 4675 SANCTORUM VANESSA JCPMF EVERE SD 107 0:35:10 08:47 6.83
570 9406 ROLLAND JUSTINE   SD 108 0:35:11 08:47 6.83
571 9138 LINARD BÉNÉDICTE RIWA A1 64 0:35:16 08:48 6.81
572 4483 LAGUIONIE LISON   SD 109 0:35:16 08:48 6.81
573 4296 CORNELIS BRIGITTE RIWA A2 44 0:35:16 08:48 6.81
574 4836 MARY JULIE   SD 110 0:35:20 08:49 6.80
575 9829 VANDENHOUTEN MATHIEU   SH 69 0:35:25 08:50 6.79
576 4230 BOCKSTAL SILKE   JF 63 0:35:25 08:50 6.79
577 4497 LAUF FRANKA   V1 77 0:35:25 08:50 6.79
578 4498 LAUF SANDRA   A2 45 0:35:25 08:50 6.79
579 4005 KREFELD FANNY   SD 111 0:35:25 08:50 6.79
580 4169 ALOY GÉRALDINE LET'S DO THIS A1 65 0:35:26 08:51 6.78
581 4006 TRIGAUX MARTIN FOULÉE PERWÉZIE SH 70 0:35:26 08:51 6.78
582 4589 MORICE CHRISTINE   A3 4 0:35:26 08:51 6.78
583 4438 HAQUIN CHARLES-EMM.   V1 78 0:35:26 08:51 6.78
584 4170 BARBIER VALERIE LET'S DO THIS A1 66 0:35:26 08:51 6.78
585 4591 MORICE WILLIAM   SH 71 0:35:28 08:51 6.78
586 4590 MORICE MARIE   SD 112 0:35:28 08:51 6.78
587 4287 COLLARD ALAIN   V1 79 0:35:29 08:51 6.77
588 4138 CORVILAIN MARTINE LES COPAINS D'A A3 5 0:35:30 08:52 6.77
589 4547 LUNARDI MARCO JCPMF GENAPPE V2 32 0:35:30 08:52 6.77
590 4746 VANDAMME RUBEN   SH 72 0:35:31 08:52 6.77
591 4288 COLLARD FRANÇOISE JCPMF GENAPPE A2 46 0:35:31 08:52 6.77
592 4435 HAKIN CHRISTELLE JCPMF WALHAIN A1 67 0:35:31 08:52 6.77
593 69231 BERREWAERTS ETIENNE   V3 13 0:35:31 08:52 6.77
594 4612 OP DE BEECK JOËL   V1 80 0:35:31 08:52 6.77
595 4611 OP DE BEECK GUST   JH 94 0:35:31 08:52 6.77
596 4378 ETIENNE ARNAUD   SH 73 0:35:32 08:52 6.76
597 8420 BODSON LAURENCE   A1 68 0:35:32 08:52 6.76
598 4017 PULETTO GIUSEPPE   V2 33 0:35:32 08:52 6.76
599 4860 MAJOROS KARIM   SH 74 0:35:32 08:52 6.76
600 4840 PULETTO LUCA   JH 95 0:35:32 08:52 6.76
601 4490 LAMBERT SOPHIE RUN IN BRUSSELS A1 69 0:35:33 08:52 6.76
602 4013 ROELS IRIS   SD 113 0:35:33 08:52 6.76
603 4298 CORNET BERNARD JE   V2 34 0:35:34 08:53 6.76
604 8651 DELABIE BRUNO JOGGING CLUB DE V2 35 0:35:36 08:53 6.75
605 4711 SYMOENS NATHALIE   A1 70 0:35:37 08:53 6.75
606 9325 PÉRILLEUX DOMINIQUE   V1 81 0:35:39 08:54 6.74
607 8395 BERTRAND HUGO   JH 96 0:35:43 08:55 6.73
608 4251 BRANTEGHEM DOMINIQUE   A1 71 0:35:44 08:55 6.73
609 9530 TISSOT PIERRE MY FUNNESS V3 14 0:35:44 08:55 6.73
610 4462 JADOUL ERIC POUR PÉPÉ! V1 82 0:35:45 08:55 6.72
611 4567 MARNEFFE ARIANE POUR PÉPÉ! A1 72 0:35:45 08:55 6.72
612 4178 JANKY REKIN'S JCPMF AVEC LA M V1 83 0:35:46 08:56 6.72
613 4183 WILLIOT CHANTAL JCPMF AVEC LA M A2 47 0:35:46 08:56 6.72
614 4175 GRYSPEIRT AIKO JCPMF AVEC LA M A1 73 0:35:46 08:56 6.72
615 4177 HUYNEN VERONIQUE JCPMF AVEC LA M A1 74 0:35:47 08:56 6.72
616 4079 MAÎTRE PIERRE ZATAC CHARELROI JH 97 0:35:47 08:56 6.72
617 4181 VANDER SANDE SOPHIE JCPMF AVEC LA M A1 75 0:35:48 08:56 6.71
618 4064 BARY MARIANNE ZATAC CHARELROI A1 76 0:35:48 08:56 6.71
619 8152 LIBOTTE BERNARD ZATAC CHARELROI V2 36 0:35:48 08:56 6.71
620 9509 TASIAUX ISABELLE   A2 48 0:35:49 08:56 6.71
621 4448 HIGUET ELISABETH   SD 114 0:35:49 08:56 6.71
622 4447 HIGUET ASTRID   SD 115 0:35:49 08:56 6.71
623 4561 MARCELIS PIERRE   SH 75 0:35:59 08:59 6.68
624 4577 MEODE AURÉLIE   SD 116 0:35:59 08:59 6.68
625 4511 LEFEVERE SALOMÉ JCPMF BRAINE-L' SD 117 0:35:59 08:59 6.68
626 4357 DOHET FRANCOISE   A3 6 0:36:00 08:59 6.68
627 4499 LAURENT ANNE JCPMF ANGLEUR A2 49 0:36:00 08:59 6.68
628 4204 BAIVERLIN LUC JCPMF ANGLEUR V2 37 0:36:01 08:59 6.67
629 9600 VAN GROENENDAEL VINCENT   V1 84 0:36:01 08:59 6.67
630 4634 PIRES SARAH   SH 76 0:36:01 08:59 6.67
631 9599 VAN GROENENDAEL MAUREEN   JF 64 0:36:01 08:59 6.67
632 4129 ANDRY VÉRONIQUE JCPMF LESSINES A2 50 0:36:02 09:00 6.67
633 4516 LE GALL NICOLAS   V1 85 0:36:02 09:00 6.67
634 4136 LERMINIAUX ALAIN JCPMF LESSINES V2 38 0:36:02 09:00 6.67
635 4515 LE GALL JOACHIM   JH 98 0:36:03 09:00 6.67
636 4222 BENTEIN JEAN-MARIE DE LOPERS V2 39 0:36:03 09:00 6.67
637 4478 KIRSTEN BENTEIN DE LOPERS SD 118 0:36:04 09:00 6.66
638 4779 VARVENNE NATHALIE   V1 86 0:36:05 09:00 6.66
639 9145 LOPPE ANNE-SOPHIE   SD 119 0:36:05 09:00 6.66
640 4774 VAN SNICK WOLF   JH 99 0:36:06 09:01 6.66
641 4775 VAN SNICK YENTL   JF 65 0:36:07 09:01 6.65
642 4433 HAESAERTS SARAH   SD 120 0:36:07 09:01 6.65
643 4535 LISANTI MELANIE   SD 121 0:36:08 09:01 6.65
644 4212 BASTOGNE CÉCILE JCPMF HOTTON A3 7 0:36:11 09:02 6.64
645 4507 LECOCQ COLETTE RUNNIN GREZ A3 8 0:36:12 09:02 6.64
646 4637 PLAS SABINE JCPMF QUAREGNON A1 77 0:36:20 09:04 6.61
647 4731 TORREKENS NOÉMIE JCPMF QUAREGNON JF 66 0:36:20 09:04 6.61
648 4770 VANROBAYS FRÉDÉRIC   V2 40 0:36:22 09:05 6.61
649 4509 LEDUNE FRANÇOISE   A2 51 0:36:22 09:05 6.61
650 8745 D'HOKER CHRISTIANE MY FUNNESS A3 9 0:36:24 09:05 6.60
651 4607 OCTAVE STÉPHANIE   SD 122 0:36:27 09:06 6.59
652 4785 VERHEYEN BARBARA   SD 123 0:36:27 09:06 6.59
653 4788 VERNIMMEN KEVIN JCPMF BRAINE-L' SH 77 0:36:29 09:06 6.59
654 4627 PIERIDIS VICKY JCPMF BRAINE-L' A1 78 0:36:29 09:06 6.59
655 4758 VAN ENST AUDE   SD 124 0:36:33 09:07 6.58
656 4759 VAN ENST MANON   SD 125 0:36:33 09:07 6.58
657 4156 DOISE JOSSE DE NELLY'S JH 100 0:36:34 09:08 6.57
658 4152 DERAEDT JONAS DE NELLY'S JH 101 0:36:34 09:08 6.57
659 4154 DOISE FIL DE NELLY'S JH 102 0:36:34 09:08 6.57
660 4830 BEYAERT SIMON ALLEZ MICHEL CH SH 78 0:36:35 09:08 6.57
661 4855 SURNY MB   A3 10 0:36:35 09:08 6.57
662 4566 MARLIÈRE FLORENCE   SD 126 0:36:37 09:08 6.56
663 4153 DERAEDT SEPPE DE NELLY'S JH 103 0:36:37 09:08 6.56
664 4132 CUVELIER GWENDOLINE JCPMF LESSINES SD 127 0:36:37 09:08 6.56
665 4131 BONFIGLIO FRANCESCA JCPMF LESSINES SD 128 0:36:38 09:09 6.56
666 4160 LERMYTTE HERA DE NELLY'S JF 67 0:36:38 09:09 6.56
667 4157 DOISE LIZA DE NELLY'S SH 79 0:36:38 09:09 6.56
668 4558 MANNAERTS ANNELEEN   SD 129 0:36:39 09:09 6.56
669 4656 RAYMAEKERS DOMINIQUE RUNNING GREZ A2 52 0:36:39 09:09 6.56
670 4161 LERMYTTE JUTTA DE NELLY'S JH 104 0:36:39 09:09 6.56
671 4403 GÉVART SOPHIA   JF 68 0:36:39 09:09 6.56
672 4402 GÉVART SARAH   JF 69 0:36:40 09:09 6.55
673 4371 DUTOIT MAGALI   A2 53 0:36:40 09:09 6.55
674 4639 POLLÉ MARJORIE   A1 79 0:36:41 09:09 6.55
675 4594 MOTTE FRÉDÉRIC   V1 87 0:36:42 09:10 6.55
676 4441 HÉNAUT HÉLOÏSE   SD 130 0:36:42 09:10 6.55
677 4281 CLÉMENT CÉDRIC   SH 80 0:36:42 09:10 6.55
678 4389 FRANCE SHANNON   A1 80 0:36:42 09:10 6.55
679 8225 LERMYTTE MARIO DE NELLY'S V1 88 0:36:43 09:10 6.55
680 4159 LALEEUWE VEERLE DE NELLY'S A1 81 0:36:44 09:10 6.54
681 4063 BALTUS MONIQUE ZATAC CHARELROI A3 11 0:36:44 09:10 6.54
682 4082 MINETTE BERNARD ZATAC CHARELROI V3 15 0:36:44 09:10 6.54
683 4321 DE GREEF JEAN CHALLENGE RUN I V4 3 0:36:44 09:10 6.54
684 4158 HAERDEMAN LIES DE NELLY'S A1 82 0:36:45 09:10 6.54
685 4155 DOISE JOKE DE NELLY'S V1 89 0:36:45 09:10 6.54
686 4648 QUINTART WIVINE RIAAC A2 54 0:36:47 09:11 6.53
687 4689 SELS ZELIE   SD 131 0:36:47 09:11 6.53
688 4145 HENDRICK LAURA LES COPAINS D'A SD 132 0:36:47 09:11 6.53
689 4187 AMEELS VERONIQUE JCPMF EVERE A1 83 0:36:48 09:11 6.53
690 4140 DETHEUX MARIE FRANCE LES COPAINS D'A A2 55 0:36:48 09:11 6.53
691 4828 DAVID FABIENNE ALLEZ MICHEL CH A2 56 0:36:48 09:11 6.53
692 4213 BAUDOUX EMMA   JF 70 0:36:49 09:11 6.53
693 4279 CLAEYS CLÉMENCE   JF 71 0:36:49 09:11 6.53
694 4142 FRANZ SOPHIE LES COPAINS D'A SD 133 0:36:49 09:11 6.53
695 4144 HENDRICK JEAN-MICHEL LES COPAINS D'A V2 41 0:36:50 09:12 6.53
696 9404 ROKADE AMRUTA   SD 134 0:36:50 09:12 6.53
697 4620 PEETERS JORDAN   SH 81 0:36:52 09:12 6.52
698 4429 GUY VASSART   SD 135 0:36:52 09:12 6.52
699 4565 MARIS HÉLÈNE HOLA Y DE NADA A1 84 0:36:56 09:13 6.51
700 4221 BENTEIN ASTRID DE LOPERS SD 136 0:36:57 09:13 6.50
701 4234 BOLLE JOACHIM   V1 90 0:36:59 09:14 6.50
702 4235 BOLLE LOUANE   JF 72 0:37:00 09:14 6.50
703 4396 GALIANO CELESTINO MAUD   SD 137 0:37:01 09:14 6.49
704 4219 BEKKARI MARYAM   SD 138 0:37:01 09:14 6.49
705 9893 DRISS MOORS BOICA DO LOURO V1 91 0:37:04 09:15 6.48
706 4439 HAULOT ALEXANDRE BOIÇA DO LOURO JH 105 0:37:04 09:15 6.48
707 4710 SWAELENS PASCALE   A2 57 0:37:08 09:16 6.47
708 4455 HUYBRECHTS SANDRINE   A1 85 0:37:10 09:17 6.47
709 4107 HUYBRECHTS CATHERINE JCPMF BRUXELLES SD 139 0:37:11 09:17 6.46
710 4454 HUYBRECHTS ISABELLE   SD 140 0:37:11 09:17 6.46
711 4113 VAN HÉE DELPHINE JCPMF BRUXELLES SD 141 0:37:11 09:17 6.46
712 4094 SCHAMPAERT CATHERINE ZATAC CHARELROI A1 86 0:37:13 09:17 6.46
713 4580 MICHIELS STEPHANIE   SD 142 0:37:14 09:18 6.45
714 4092 QUADFLIEG LUC ZATAC CHARELROI V2 42 0:37:16 09:18 6.45
715 4701 STEUVER CÉCILE   A1 87 0:37:18 09:19 6.44
716 4180 SAULIERE HELENE JCPMF AVEC LA M A1 88 0:37:18 09:19 6.44
717 4179 ROMANUS VANESSA JCPMF AVEC LA M A1 89 0:37:19 09:19 6.44
718 4176 HOUYOU STEPHANIE JCPMF AVEC LA M A1 90 0:37:19 09:19 6.44
719 4260 BUSSETI DANIEL   V2 43 0:37:20 09:19 6.44
720 9088 LAUREYS CHRISTELLE   SD 143 0:37:20 09:19 6.44
721 4208 BALLINGER MORGANE   SD 144 0:37:22 09:20 6.43
722 4799 WETZ EMMANUELLE   SD 145 0:37:22 09:20 6.43
723 8933 GRIFFET MATHIEU   SH 82 0:37:23 09:20 6.43
724 4469 KACZYNSKA MALGORZATA   A2 58 0:37:24 09:20 6.43
725 4091 PIETQUIN SOPHIE ZATAC CHARELROI SD 146 0:37:26 09:21 6.42
726 9346 PIREYN VIRGINIE   SD 147 0:37:27 09:21 6.42
727 9009 HULET LAURA   SD 148 0:37:27 09:21 6.42
728 9449 SCHOENAERS GEOFFREY   V1 92 0:37:29 09:21 6.41
729 8910 GIRBOUX VIRGINIE   A1 91 0:37:29 09:21 6.41
730 4032 TERSTEEGE JAYDEN   JH 106 0:37:33 09:22 6.40
731 8790 DUPONT SYLVIE   A2 59 0:37:34 09:23 6.40
732 4075 HAILLEZ CARINNE ZATAC CHARELROI A1 92 0:37:40 09:24 6.38
733 4696 SMELLINCKX NANCY   A1 93 0:37:40 09:24 6.38
734 4031 BERMONVILLE EMMANUELLE   A1 94 0:37:41 09:24 6.38
735 4310 DEBRY SYLVIE NÉANT A1 95 0:37:41 09:24 6.38
736 4683 SCHRIKS RITA NÉANT A2 60 0:37:41 09:24 6.38
737 4556 MALBECQ ANN   A3 12 0:37:41 09:24 6.38
738 4295 CORDIER VANESSA SPORT ET FUN HÉ A1 96 0:37:42 09:25 6.38
739 9142 LIZEN FABIENNE   A2 61 0:37:43 09:25 6.37
740 4693 SIGREST BLANCO GHISLAIN   SH 83 0:37:44 09:25 6.37
741 4467 JORIGAS DAVID   SH 84 0:37:45 09:25 6.37
742 4760 VANHECKE ANGELIQUE   SD 149 0:37:45 09:25 6.37
743 4076 JAR BRIGITTE ZATAC CHARELROI A3 13 0:37:52 09:27 6.35
744 4593 MOTHEU ISABELLE   A1 97 0:37:54 09:28 6.34
745 4415 GOEDERTIER CHRISTIAN   V1 93 0:37:54 09:28 6.34
746 4377 ERNENS CATHERINE   A1 98 0:37:55 09:28 6.34
747 4194 ARMUT SEYITALI   V1 94 0:37:57 09:28 6.33
748 4571 MASQUELIER CAROLINE   A1 99 0:37:57 09:28 6.33
749 4662 RIVERO DAVID   V1 95 0:37:57 09:28 6.33
750 4663 RIVERO ISMAEL   JH 107 0:37:57 09:28 6.33
751 4661 RIVERO DANIEL   JH 108 0:37:58 09:29 6.33
752 4146 HERREMANS NATHALIE LES COPAINS D'A A2 62 0:37:59 09:29 6.33
753 4646 PREAU PASCALE   A2 63 0:38:01 09:29 6.32
754 4538 LOENS ERWIN   V1 96 0:38:01 09:29 6.32
755 4679 SCARCELLI FLAVIA   A1 100 0:38:06 09:31 6.31
756 4188 AMELOT CHARLOTTE N/A A2 64 0:38:10 09:32 6.30
757 4014 SIMON VALÉRIE   JF 73 0:38:17 09:33 6.28
758 4015 BERTRAND INGRID   A1 101 0:38:17 09:33 6.28
759 4141 ERVYN VALERIE LES COPAINS D'A A1 102 0:38:18 09:34 6.28
760 4151 PINEAU JACQUELINE LES COPAINS D'A A1 103 0:38:19 09:34 6.27
761 4685 SEBILLE CHRISTELLE   SD 150 0:38:21 09:34 6.27
762 8551 CORENS FLORENCE   SD 151 0:38:22 09:35 6.26
763 9476 SOREIL ALEXIA   SD 152 0:38:23 09:35 6.26
764 4601 NIBHRIAIN LESLEY   A1 104 0:38:26 09:36 6.25
765 4549 LYNAM BETH   JF 74 0:38:26 09:36 6.25
766 4584 MOLLAERT IMILIA LEEUWERIK JF 75 0:38:27 09:36 6.25
767 4787 VERMEULEN BELINDA LEEUWERIK A1 105 0:38:27 09:36 6.25
768 4023 CHAWAF DIEGO   JH 109 0:38:27 09:36 6.25
769 4306 DE BECKER ANNE-SOPHIE   SD 153 0:38:29 09:36 6.25
770 4453 HUAUX ANNE   A2 65 0:38:31 09:37 6.24
771 4592 MORMAL ISABELLE   A2 66 0:38:31 09:37 6.24
772 4024 VANDAMME MARIE-GABRIELLE   SD 154 0:38:34 09:38 6.23
773 4755 VANDERLINDEN WENDY VDL JF 76 0:38:35 09:38 6.23
774 8389 BERCKMANS VALÉRIE   SD 155 0:38:36 09:38 6.23
775 9228 MERKER ELODIE   SD 156 0:38:36 09:38 6.23
776 4653 RALET CHRISTOPHE   V1 97 0:38:39 09:39 6.22
777 4225 BETRANCOURT AGNES   A2 67 0:38:40 09:39 6.22
778 4370 DUQUESNE CECILE   A2 68 0:38:40 09:39 6.22
779 9389 REMACLE CHRISTOPHE JE COURS POUR M V2 44 0:38:43 09:40 6.21
780 4137 ROUGE ALISON JCPMF LESSINES SD 157 0:38:46 09:41 6.20
781 4130 BARBAIX ARNAUD JCPMF LESSINES SH 85 0:38:47 09:41 6.20
782 4186 ALIFIERAKIS ATHÉNA JCPMF BRAINE-L' A2 69 0:38:49 09:41 6.19
783 4207 BALFROID VÉRONIQUE   A2 70 0:38:51 09:42 6.19
784 4715 TANGHE PASCAL   V2 45 0:38:51 09:42 6.19
785 4700 STERK CATHERINE JCPMF EVERE A2 71 0:38:52 09:42 6.18
786 4560 MARANCA LUANA JCPMF QUAREGNON SD 158 0:38:56 09:43 6.17
787 4505 LECLERCQ FABIENNE JCPMF QUAREGNON A1 106 0:38:57 09:43 6.17
788 4134 DECLERCQ FLORIANE JCPMF LESSINES SD 159 0:38:59 09:44 6.17
789 9651 VERBEKE ANKE   SD 160 0:39:08 09:46 6.14
790 4530 LEONARD VALERIE   A1 107 0:39:09 09:46 6.14
791 4318 DEGALLAIX ISABELLE - A1 108 0:39:10 09:47 6.14
792 4236 BOLLE MICHAEL RUNNING TEAM AB V4 4 0:39:11 09:47 6.13
793 4719 TERRON FLORES TANIA CANICROSS JETTE SD 161 0:39:11 09:47 6.13
794 4554 MAGNETTE ELLEN   SD 162 0:39:12 09:47 6.13
795 4361 DROUART MARIE - A3 14 0:39:13 09:47 6.13
796 4645 POURMOHAMMAD MARYAM   SD 163 0:39:17 09:48 6.12
797 4486 LALLART VANESSA   SD 164 0:39:17 09:48 6.12
798 4853 DEBEKKER ALAIN   V4 5 0:39:18 09:49 6.12
799 4297 CORNET ANAÏS   SD 165 0:39:26 09:51 6.09
800 4304 DARC CORENTIN   SH 86 0:39:26 09:51 6.09
801 4270 CAVALIER MARIE   A1 109 0:39:29 09:51 6.09
802 4508 LECOCQ MARIE   A1 110 0:39:29 09:51 6.09
803 4021 VERSTAPPEN YAGO   JH 110 0:39:32 09:52 6.08
804 4302 CYNTHIA WILLOCQ   SD 166 0:39:34 09:53 6.07
805 4278 CIOBESCU STEPHANIE   SD 167 0:39:34 09:53 6.07
806 8296 ACETO GABY RUN FOR C A3 15 0:39:36 09:53 6.07
807 4303 DAIX ANNICK RUNNIN'GREZ A2 72 0:39:39 09:54 6.06
808 4216 BÉE CORINNE CLUB DE RUNNING A2 73 0:39:39 09:54 6.06
809 4832 CROCHET URSULA   A1 111 0:39:40 09:54 6.06
810 4504 LEBRETON AURÉLIE   SD 168 0:39:41 09:54 6.06
811 4315 DE CONINCK CHARLOTTE DE CONINCK SD 169 0:39:41 09:54 6.06
812 4521 LELOUP THOMAS   SH 87 0:39:41 09:54 6.06
813 8818 EVERARD DE HARZIR JULIE   JF 77 0:39:43 09:55 6.05
814 8995 HOEDENAEKEN SOPHIE   SD 170 0:39:51 09:57 6.03
815 9677 VINCENT MARJORIE   SD 171 0:39:51 09:57 6.03
816 4307 DE BECKER ANTOINE   SH 88 0:39:52 09:57 6.03
817 8930 GRANDJEAN MICHÈLE CS FORESTOISE A2 74 0:39:58 09:59 6.01
818 4191 ANDRIES DIDIER   V2 46 0:39:59 09:59 6.01
819 4322 DEGROOF MELISSA   SD 172 0:39:59 09:59 6.01
820 4721 THEYS CARINE   A2 75 0:40:03 10:00 6.00
821 4211 BARBIEUX STÉPHANIE JCPMF QUAREGNON SD 173 0:40:06 10:01 5.99
822 4379 FABRY OLIVIA DAC A1 112 0:40:09 10:01 5.99
823 8074 VAN MEIRHAEGHE LEENTJE   SD 174 0:40:11 10:02 5.98
824 9706 WEETS ANNE-CHRISTINE DERCETECH A1 113 0:40:14 10:03 5.97
825 9222 MERCIER JÉRÉMIE DERCETECH SH 89 0:40:14 10:03 5.97
826 4674 SALEM VIOLÈNE   A2 76 0:40:19 10:04 5.96
827 9399 RIU GEMMA LADIES NAMUR A1 114 0:40:20 10:04 5.96
828 4741 URSO CARMELA JCPMF QUAREGNON A2 77 0:40:21 10:04 5.96
829 8058 PAEPS VINCENT RUNNIN'GREZ V1 98 0:40:25 10:05 5.95
830 4484 LAITEM CHRISTINE   A2 78 0:40:32 10:07 5.93
831 4048 KONIECZNY ROMUALD JE COURS PAS VI V1 99 0:40:33 10:07 5.93
832 4728 TORREKENS ALAIN JCPMF QUAREGNON V3 16 0:40:38 10:09 5.91
833 4277 CHEVALIER CLAUDINE JCPMF QUAREGNON A3 16 0:40:41 10:09 5.91
834 4284 CLYMANS STÉPHANE JCPMF LESSINES V1 100 0:40:45 10:10 5.90
835 4265 CARLIER CECILE JCPMF A2 79 0:40:51 10:12 5.88
836 4313 DECAMPS SOPHIE JCPMF A2 80 0:40:52 10:12 5.88
837 4246 BOURGEOIS GAEL NON SD 175 0:41:06 10:16 5.85
838 4308 DE BEER CATHERINE   A1 115 0:41:08 10:16 5.84
839 4735 TRICARICO EMANUELA JCPMF QUAREGNON A2 81 0:41:09 10:16 5.84
840 4249 BRACKE LIAM   JH 111 0:41:09 10:16 5.84
841 4559 MANSILLA CINTIA   SD 176 0:41:12 10:17 5.83
842 4408 GHILAIN OLIVIER KURISTO / CHALL SH 90 0:41:22 10:20 5.81
843 4604 NOEL BEATRICE KURISTO SD 177 0:41:24 10:20 5.81
844 4578 MEUNIER ETIENNE   SH 91 0:41:25 10:20 5.80
845 4605 NOEL VÉRONIQUE   A1 116 0:41:25 10:20 5.80
846 4417 GOETGHEBUER DAVID   V2 47 0:41:51 10:27 5.74
847 4757 VANDOOREN BÉNÉDICTE USBW A2 82 0:41:56 10:28 5.73
848 4705 STOCKMANS CECILE RCB SD 178 0:41:56 10:28 5.73
849 4350 D'HAVÉ JULIE   SD 179 0:41:56 10:28 5.73
850 8010 BETLEM MAGGY DIM-UCB-RUN SD 180 0:42:16 10:33 5.69
851 4010 MENTZ LAURENCE SWIFT RUNNING C A1 117 0:42:26 10:36 5.66
852 4011 ACHOUR KENZA   A2 83 0:42:26 10:36 5.66
853 4420 GOODEN ELAINE   A2 84 0:43:03 10:45 5.58
854 4122 COLLET NADIA F101G RUN SD 181 0:43:22 10:50 5.54
855 4807 DIALIO HADJA   SD 182 0:43:25 10:50 5.54
856 4806 VANLOO EVI   SD 183 0:43:26 10:51 5.53
857 4816 VAN DER RERREN KRISTIAAN   xxx   0:43:26 10:51 5.53
858 4214 BEAURAIN MARIE   A3 17 0:43:27 10:51 5.53
859 4372 EBENIAICH NAJAT ART AXA RUNNING A2 85 0:43:33 10:52 5.52
860 4756 VAN DER MAREN MARIE-THÉRÈSE RUNNING TEAM AB A3 18 0:43:57 10:58 5.47
861 4359 DOSTALOVA DANA   A3 19 0:44:01 10:59 5.46
862 4401 GERARD STEPHEN JCPMF QUAREGNON SH 92 0:44:03 11:00 5.46
863 4531 LERAT JOSIANE JCPMF QUAREGNON A3 20 0:44:03 11:00 5.46
864 4210 BARBIEUX CINDY JCPMF QUAREGNON SD 184 0:44:03 11:00 5.46
865 4395 GABRIEL LAURANE   JF 78 0:44:05 11:00 5.45
866 4443 HERALY CHRISTINE   A1 118 0:44:12 11:02 5.44
867 4444 HERALY LAURENCE   A1 119 0:44:14 11:03 5.43
868 9074 LAMRASKI SACHA   JH 112 0:45:53 11:27 5.24
869 69232 BENATS MARIE   SD 185 0:48:07 12:01 4.99
870 4335 DELSUPEXHE CHRISTINE   A2 86 0:48:38 12:08 4.94
871 4422 GRETRY JACQUELINE   A3 21 0:49:16 12:18 4.88
872 9579 VANDER LINDEN ALEXENDRE   xxx   0:53:52 13:27 4.46
873 4702 STEVENS HANNE   SD 186 0:56:55 14:13 4.22
874 4781 VELGHE MATHIEU   V1 101 0:57:20 14:19 4.19
875 8142 DECLERCQ FRANÇOIS ZATAC CHARELROI V1 102 0:57:25 14:20 4.19
876 4173 ROFFLER CHRISTELLE LET'S DO THIS A1 120 0:58:13 14:32 4.13
877 4202 BAENS NAOMI   SD 187 0:59:33 14:52 4.04
878 4201 AURIEL YANN   JH 113 1:00:15 15:02 3.99
879 4199 AURIEL GUÉRRIC   V1 103 1:00:16 15:03 3.99
880 8918 GODEFROID PASCALE JAMES A2 87 1:00:47 15:10 3.95
881 4374 EL GHORFI SARAH JCPMF EVERE SH 93 1:01:58 15:28 3.88
882 4670 RUELLE ALICE   JF 79 1:10:01 17:29 3.43